sensor_id;sensor_type;location;lat;lon;timestamp;P1;durP1;ratioP1;P2;durP2;ratioP2
11222;SDS011;5668;52.012;8.724;2024-01-11T00:00:55;41.07;;;25.50;;
11222;SDS011;5668;52.012;8.724;2024-01-11T00:03:24;35.03;;;23.63;;
11222;SDS011;5668;52.012;8.724;2024-01-11T00:05:51;37.90;;;24.90;;
11222;SDS011;5668;52.012;8.724;2024-01-11T00:08:18;39.50;;;25.03;;
11222;SDS011;5668;52.012;8.724;2024-01-11T00:10:45;39.40;;;25.50;;
11222;SDS011;5668;52.012;8.724;2024-01-11T00:13:13;37.90;;;25.13;;
11222;SDS011;5668;52.012;8.724;2024-01-11T00:15:41;44.40;;;25.67;;
11222;SDS011;5668;52.012;8.724;2024-01-11T00:18:09;39.93;;;24.87;;
11222;SDS011;5668;52.012;8.724;2024-01-11T00:20:36;42.80;;;26.13;;
11222;SDS011;5668;52.012;8.724;2024-01-11T00:23:03;41.33;;;25.80;;
11222;SDS011;5668;52.012;8.724;2024-01-11T00:25:31;41.40;;;25.60;;
11222;SDS011;5668;52.012;8.724;2024-01-11T00:27:58;40.53;;;25.23;;
11222;SDS011;5668;52.012;8.724;2024-01-11T00:30:26;38.87;;;25.97;;
11222;SDS011;5668;52.012;8.724;2024-01-11T00:32:55;41.97;;;26.00;;
11222;SDS011;5668;52.012;8.724;2024-01-11T00:35:22;41.43;;;25.60;;
11222;SDS011;5668;52.012;8.724;2024-01-11T00:37:49;38.73;;;24.83;;
11222;SDS011;5668;52.012;8.724;2024-01-11T00:40:17;40.83;;;25.17;;
11222;SDS011;5668;52.012;8.724;2024-01-11T00:42:44;45.47;;;26.13;;
11222;SDS011;5668;52.012;8.724;2024-01-11T00:45:12;36.00;;;23.50;;
11222;SDS011;5668;52.012;8.724;2024-01-11T00:47:39;39.70;;;23.97;;
11222;SDS011;5668;52.012;8.724;2024-01-11T00:50:08;42.80;;;26.97;;
11222;SDS011;5668;52.012;8.724;2024-01-11T00:52:36;37.77;;;25.27;;
11222;SDS011;5668;52.012;8.724;2024-01-11T00:55:04;43.53;;;26.17;;
11222;SDS011;5668;52.012;8.724;2024-01-11T00:57:32;38.77;;;24.80;;
11222;SDS011;5668;52.012;8.724;2024-01-11T00:59:59;40.20;;;24.47;;
11222;SDS011;5668;52.012;8.724;2024-01-11T01:02:26;38.13;;;25.50;;
11222;SDS011;5668;52.012;8.724;2024-01-11T01:04:54;36.63;;;24.17;;
11222;SDS011;5668;52.012;8.724;2024-01-11T01:07:22;43.57;;;26.20;;
11222;SDS011;5668;52.012;8.724;2024-01-11T01:09:49;36.57;;;23.77;;
11222;SDS011;5668;52.012;8.724;2024-01-11T01:12:17;38.57;;;24.47;;
11222;SDS011;5668;52.012;8.724;2024-01-11T01:14:44;36.87;;;24.50;;
11222;SDS011;5668;52.012;8.724;2024-01-11T01:17:11;38.93;;;24.33;;
11222;SDS011;5668;52.012;8.724;2024-01-11T01:19:38;41.37;;;24.73;;
11222;SDS011;5668;52.012;8.724;2024-01-11T01:22:05;38.33;;;24.40;;
11222;SDS011;5668;52.012;8.724;2024-01-11T01:24:34;39.50;;;24.50;;
11222;SDS011;5668;52.012;8.724;2024-01-11T01:27:01;40.03;;;25.67;;
11222;SDS011;5668;52.012;8.724;2024-01-11T01:29:29;39.37;;;24.17;;
11222;SDS011;5668;52.012;8.724;2024-01-11T01:31:56;41.93;;;25.67;;
11222;SDS011;5668;52.012;8.724;2024-01-11T01:34:23;38.30;;;24.60;;
11222;SDS011;5668;52.012;8.724;2024-01-11T01:36:51;37.60;;;25.20;;
11222;SDS011;5668;52.012;8.724;2024-01-11T01:39:18;41.53;;;26.10;;
11222;SDS011;5668;52.012;8.724;2024-01-11T01:41:46;42.00;;;24.87;;
11222;SDS011;5668;52.012;8.724;2024-01-11T01:44:14;41.17;;;25.70;;
11222;SDS011;5668;52.012;8.724;2024-01-11T01:46:41;41.27;;;25.80;;
11222;SDS011;5668;52.012;8.724;2024-01-11T01:49:08;42.27;;;26.53;;
11222;SDS011;5668;52.012;8.724;2024-01-11T01:51:37;39.73;;;24.87;;
11222;SDS011;5668;52.012;8.724;2024-01-11T01:54:05;38.07;;;24.60;;
11222;SDS011;5668;52.012;8.724;2024-01-11T01:56:33;41.90;;;24.37;;
11222;SDS011;5668;52.012;8.724;2024-01-11T01:59:01;44.60;;;26.17;;
11222;SDS011;5668;52.012;8.724;2024-01-11T02:01:30;39.03;;;24.17;;
11222;SDS011;5668;52.012;8.724;2024-01-11T02:03:58;41.30;;;24.97;;
11222;SDS011;5668;52.012;8.724;2024-01-11T02:06:26;41.27;;;25.90;;
11222;SDS011;5668;52.012;8.724;2024-01-11T02:08:57;39.97;;;25.53;;
11222;SDS011;5668;52.012;8.724;2024-01-11T02:11:28;41.77;;;24.90;;
11222;SDS011;5668;52.012;8.724;2024-01-11T02:13:56;41.17;;;25.40;;
11222;SDS011;5668;52.012;8.724;2024-01-11T02:16:24;40.77;;;24.77;;
11222;SDS011;5668;52.012;8.724;2024-01-11T02:18:52;44.17;;;26.33;;
11222;SDS011;5668;52.012;8.724;2024-01-11T02:21:19;39.97;;;24.23;;
11222;SDS011;5668;52.012;8.724;2024-01-11T02:23:56;45.80;;;26.73;;
11222;SDS011;5668;52.012;8.724;2024-01-11T02:26:33;41.50;;;25.77;;
11222;SDS011;5668;52.012;8.724;2024-01-11T02:29:00;38.07;;;24.33;;
11222;SDS011;5668;52.012;8.724;2024-01-11T02:31:27;42.13;;;25.90;;
11222;SDS011;5668;52.012;8.724;2024-01-11T02:33:55;45.40;;;25.90;;
11222;SDS011;5668;52.012;8.724;2024-01-11T02:36:22;44.40;;;27.53;;
11222;SDS011;5668;52.012;8.724;2024-01-11T02:38:51;43.53;;;27.10;;
11222;SDS011;5668;52.012;8.724;2024-01-11T02:41:20;43.27;;;26.20;;
11222;SDS011;5668;52.012;8.724;2024-01-11T02:43:49;42.73;;;27.33;;
11222;SDS011;5668;52.012;8.724;2024-01-11T02:46:18;43.57;;;27.73;;
11222;SDS011;5668;52.012;8.724;2024-01-11T02:48:45;40.33;;;26.70;;
11222;SDS011;5668;52.012;8.724;2024-01-11T02:51:12;48.00;;;26.90;;
11222;SDS011;5668;52.012;8.724;2024-01-11T02:53:39;45.93;;;27.40;;
11222;SDS011;5668;52.012;8.724;2024-01-11T02:56:07;40.63;;;26.27;;
11222;SDS011;5668;52.012;8.724;2024-01-11T02:58:35;42.93;;;27.67;;
11222;SDS011;5668;52.012;8.724;2024-01-11T03:01:03;40.87;;;25.97;;
11222;SDS011;5668;52.012;8.724;2024-01-11T03:03:31;41.17;;;27.03;;
11222;SDS011;5668;52.012;8.724;2024-01-11T03:05:58;46.30;;;28.10;;
11222;SDS011;5668;52.012;8.724;2024-01-11T03:08:25;43.03;;;27.17;;
11222;SDS011;5668;52.012;8.724;2024-01-11T03:10:53;44.70;;;26.60;;
11222;SDS011;5668;52.012;8.724;2024-01-11T03:13:20;44.27;;;26.37;;
11222;SDS011;5668;52.012;8.724;2024-01-11T03:15:49;44.07;;;26.67;;
11222;SDS011;5668;52.012;8.724;2024-01-11T03:18:16;41.80;;;25.90;;
11222;SDS011;5668;52.012;8.724;2024-01-11T03:20:43;39.70;;;27.00;;
11222;SDS011;5668;52.012;8.724;2024-01-11T03:23:11;48.90;;;28.17;;
11222;SDS011;5668;52.012;8.724;2024-01-11T03:25:38;43.83;;;26.23;;
11222;SDS011;5668;52.012;8.724;2024-01-11T03:28:05;41.73;;;25.93;;
11222;SDS011;5668;52.012;8.724;2024-01-11T03:30:33;43.13;;;26.23;;
11222;SDS011;5668;52.012;8.724;2024-01-11T03:33:01;46.77;;;27.60;;
11222;SDS011;5668;52.012;8.724;2024-01-11T03:35:29;41.20;;;26.33;;
11222;SDS011;5668;52.012;8.724;2024-01-11T03:37:56;43.93;;;26.80;;
11222;SDS011;5668;52.012;8.724;2024-01-11T03:40:23;48.27;;;26.97;;
11222;SDS011;5668;52.012;8.724;2024-01-11T03:42:51;40.50;;;26.07;;
11222;SDS011;5668;52.012;8.724;2024-01-11T03:45:19;42.80;;;27.53;;
11222;SDS011;5668;52.012;8.724;2024-01-11T03:47:46;39.17;;;25.50;;
11222;SDS011;5668;52.012;8.724;2024-01-11T03:50:15;39.97;;;25.47;;
11222;SDS011;5668;52.012;8.724;2024-01-11T03:52:44;40.30;;;24.50;;
11222;SDS011;5668;52.012;8.724;2024-01-11T03:55:12;42.77;;;27.23;;
11222;SDS011;5668;52.012;8.724;2024-01-11T03:57:39;41.40;;;26.63;;
11222;SDS011;5668;52.012;8.724;2024-01-11T04:02:37;38.83;;;24.13;;
11222;SDS011;5668;52.012;8.724;2024-01-11T04:05:04;43.10;;;25.90;;
11222;SDS011;5668;52.012;8.724;2024-01-11T04:07:33;40.60;;;26.00;;
11222;SDS011;5668;52.012;8.724;2024-01-11T04:10:00;44.70;;;27.07;;
11222;SDS011;5668;52.012;8.724;2024-01-11T04:12:28;46.30;;;28.43;;
11222;SDS011;5668;52.012;8.724;2024-01-11T04:14:55;42.63;;;26.57;;
11222;SDS011;5668;52.012;8.724;2024-01-11T04:17:22;39.27;;;24.30;;
11222;SDS011;5668;52.012;8.724;2024-01-11T04:19:49;42.73;;;25.77;;
11222;SDS011;5668;52.012;8.724;2024-01-11T04:22:17;47.17;;;26.33;;
11222;SDS011;5668;52.012;8.724;2024-01-11T04:24:45;40.30;;;25.23;;
11222;SDS011;5668;52.012;8.724;2024-01-11T04:27:12;43.43;;;28.37;;
11222;SDS011;5668;52.012;8.724;2024-01-11T04:29:40;49.50;;;28.10;;
11222;SDS011;5668;52.012;8.724;2024-01-11T04:32:07;45.67;;;25.73;;
11222;SDS011;5668;52.012;8.724;2024-01-11T04:34:34;46.70;;;26.83;;
11222;SDS011;5668;52.012;8.724;2024-01-11T04:37:01;48.57;;;26.30;;
11222;SDS011;5668;52.012;8.724;2024-01-11T04:39:29;39.83;;;26.27;;
11222;SDS011;5668;52.012;8.724;2024-01-11T04:41:58;39.90;;;24.47;;
11222;SDS011;5668;52.012;8.724;2024-01-11T04:44:27;43.77;;;26.63;;
11222;SDS011;5668;52.012;8.724;2024-01-11T04:46:54;42.57;;;25.60;;
11222;SDS011;5668;52.012;8.724;2024-01-11T04:49:21;37.20;;;24.80;;
11222;SDS011;5668;52.012;8.724;2024-01-11T04:51:49;43.80;;;26.57;;
11222;SDS011;5668;52.012;8.724;2024-01-11T04:54:16;41.97;;;26.00;;
11222;SDS011;5668;52.012;8.724;2024-01-11T04:56:43;42.90;;;26.87;;
11222;SDS011;5668;52.012;8.724;2024-01-11T04:59:12;47.07;;;28.27;;
11222;SDS011;5668;52.012;8.724;2024-01-11T05:01:39;47.63;;;27.57;;
11222;SDS011;5668;52.012;8.724;2024-01-11T05:04:07;43.67;;;26.77;;
11222;SDS011;5668;52.012;8.724;2024-01-11T05:06:35;43.40;;;25.90;;
11222;SDS011;5668;52.012;8.724;2024-01-11T05:09:02;42.70;;;24.90;;
11222;SDS011;5668;52.012;8.724;2024-01-11T05:11:29;42.60;;;26.40;;
11222;SDS011;5668;52.012;8.724;2024-01-11T05:13:57;44.83;;;26.70;;
11222;SDS011;5668;52.012;8.724;2024-01-11T05:16:26;38.27;;;25.13;;
11222;SDS011;5668;52.012;8.724;2024-01-11T05:18:54;41.80;;;25.70;;
11222;SDS011;5668;52.012;8.724;2024-01-11T05:21:23;42.70;;;26.27;;
11222;SDS011;5668;52.012;8.724;2024-01-11T05:23:50;39.13;;;24.93;;
11222;SDS011;5668;52.012;8.724;2024-01-11T05:26:18;38.43;;;23.67;;
11222;SDS011;5668;52.012;8.724;2024-01-11T05:28:46;38.77;;;24.77;;
11222;SDS011;5668;52.012;8.724;2024-01-11T05:31:14;39.73;;;24.27;;
11222;SDS011;5668;52.012;8.724;2024-01-11T05:33:43;39.70;;;25.07;;
11222;SDS011;5668;52.012;8.724;2024-01-11T05:36:10;39.70;;;25.23;;
11222;SDS011;5668;52.012;8.724;2024-01-11T05:38:38;40.10;;;24.90;;
11222;SDS011;5668;52.012;8.724;2024-01-11T05:41:06;41.10;;;24.93;;
11222;SDS011;5668;52.012;8.724;2024-01-11T05:43:33;39.57;;;25.23;;
11222;SDS011;5668;52.012;8.724;2024-01-11T05:46:01;34.37;;;23.30;;
11222;SDS011;5668;52.012;8.724;2024-01-11T05:48:28;38.90;;;25.07;;
11222;SDS011;5668;52.012;8.724;2024-01-11T05:50:57;39.73;;;23.90;;
11222;SDS011;5668;52.012;8.724;2024-01-11T05:53:24;41.37;;;25.43;;
11222;SDS011;5668;52.012;8.724;2024-01-11T05:55:52;40.30;;;23.83;;
11222;SDS011;5668;52.012;8.724;2024-01-11T05:58:19;43.77;;;26.03;;
11222;SDS011;5668;52.012;8.724;2024-01-11T06:00:47;43.03;;;26.80;;
11222;SDS011;5668;52.012;8.724;2024-01-11T06:03:14;40.80;;;25.47;;
11222;SDS011;5668;52.012;8.724;2024-01-11T06:05:41;42.17;;;26.47;;
11222;SDS011;5668;52.012;8.724;2024-01-11T06:08:10;49.27;;;26.47;;
11222;SDS011;5668;52.012;8.724;2024-01-11T06:10:37;47.53;;;28.20;;
11222;SDS011;5668;52.012;8.724;2024-01-11T06:13:05;44.23;;;27.67;;
11222;SDS011;5668;52.012;8.724;2024-01-11T06:15:33;39.80;;;25.70;;
11222;SDS011;5668;52.012;8.724;2024-01-11T06:18:01;38.13;;;25.63;;
11222;SDS011;5668;52.012;8.724;2024-01-11T06:20:29;45.27;;;27.13;;
11222;SDS011;5668;52.012;8.724;2024-01-11T06:22:57;45.00;;;26.60;;
11222;SDS011;5668;52.012;8.724;2024-01-11T06:25:25;46.77;;;26.87;;
11222;SDS011;5668;52.012;8.724;2024-01-11T06:27:52;43.13;;;24.87;;
11222;SDS011;5668;52.012;8.724;2024-01-11T06:30:20;43.67;;;26.40;;
11222;SDS011;5668;52.012;8.724;2024-01-11T06:32:47;44.37;;;25.90;;
11222;SDS011;5668;52.012;8.724;2024-01-11T06:35:14;42.27;;;26.27;;
11222;SDS011;5668;52.012;8.724;2024-01-11T06:37:42;41.60;;;26.40;;
11222;SDS011;5668;52.012;8.724;2024-01-11T06:40:10;43.17;;;26.83;;
11222;SDS011;5668;52.012;8.724;2024-01-11T06:42:40;39.63;;;23.97;;
11222;SDS011;5668;52.012;8.724;2024-01-11T06:45:07;38.17;;;24.60;;
11222;SDS011;5668;52.012;8.724;2024-01-11T06:47:35;44.33;;;26.13;;
11222;SDS011;5668;52.012;8.724;2024-01-11T06:50:03;37.80;;;25.03;;
11222;SDS011;5668;52.012;8.724;2024-01-11T06:52:32;46.33;;;27.03;;
11222;SDS011;5668;52.012;8.724;2024-01-11T06:54:59;44.93;;;26.53;;
11222;SDS011;5668;52.012;8.724;2024-01-11T06:57:27;39.97;;;27.30;;
11222;SDS011;5668;52.012;8.724;2024-01-11T06:59:55;44.57;;;26.53;;
11222;SDS011;5668;52.012;8.724;2024-01-11T07:02:23;43.77;;;27.20;;
11222;SDS011;5668;52.012;8.724;2024-01-11T07:04:50;46.50;;;26.37;;
11222;SDS011;5668;52.012;8.724;2024-01-11T07:07:17;41.87;;;25.93;;
11222;SDS011;5668;52.012;8.724;2024-01-11T07:09:44;43.47;;;24.80;;
11222;SDS011;5668;52.012;8.724;2024-01-11T07:12:11;43.20;;;26.13;;
11222;SDS011;5668;52.012;8.724;2024-01-11T07:14:39;38.73;;;24.27;;
11222;SDS011;5668;52.012;8.724;2024-01-11T07:17:07;40.50;;;24.47;;
11222;SDS011;5668;52.012;8.724;2024-01-11T07:19:34;42.43;;;24.77;;
11222;SDS011;5668;52.012;8.724;2024-01-11T07:22:02;35.37;;;24.60;;
11222;SDS011;5668;52.012;8.724;2024-01-11T07:24:29;41.83;;;24.47;;
11222;SDS011;5668;52.012;8.724;2024-01-11T07:27:02;37.73;;;24.50;;
11222;SDS011;5668;52.012;8.724;2024-01-11T07:29:30;42.10;;;26.10;;
11222;SDS011;5668;52.012;8.724;2024-01-11T07:31:57;40.80;;;25.70;;
11222;SDS011;5668;52.012;8.724;2024-01-11T07:34:26;39.73;;;25.70;;
11222;SDS011;5668;52.012;8.724;2024-01-11T07:36:53;43.87;;;26.50;;
11222;SDS011;5668;52.012;8.724;2024-01-11T07:39:21;41.07;;;26.33;;
11222;SDS011;5668;52.012;8.724;2024-01-11T07:41:49;38.57;;;24.63;;
11222;SDS011;5668;52.012;8.724;2024-01-11T07:44:17;36.40;;;23.30;;
11222;SDS011;5668;52.012;8.724;2024-01-11T07:46:45;40.77;;;24.43;;
11222;SDS011;5668;52.012;8.724;2024-01-11T07:49:12;43.83;;;26.00;;
11222;SDS011;5668;52.012;8.724;2024-01-11T07:51:41;38.03;;;23.23;;
11222;SDS011;5668;52.012;8.724;2024-01-11T07:54:08;39.20;;;25.57;;
11222;SDS011;5668;52.012;8.724;2024-01-11T07:56:36;40.43;;;25.10;;
11222;SDS011;5668;52.012;8.724;2024-01-11T07:59:03;39.73;;;26.97;;
11222;SDS011;5668;52.012;8.724;2024-01-11T08:01:30;40.33;;;25.70;;
11222;SDS011;5668;52.012;8.724;2024-01-11T08:04:00;41.17;;;25.20;;
11222;SDS011;5668;52.012;8.724;2024-01-11T08:06:27;37.40;;;25.17;;
11222;SDS011;5668;52.012;8.724;2024-01-11T08:08:56;41.83;;;26.50;;
11222;SDS011;5668;52.012;8.724;2024-01-11T08:11:23;44.67;;;25.97;;
11222;SDS011;5668;52.012;8.724;2024-01-11T08:13:51;45.00;;;27.73;;
11222;SDS011;5668;52.012;8.724;2024-01-11T08:16:19;40.17;;;27.20;;
11222;SDS011;5668;52.012;8.724;2024-01-11T08:18:47;43.53;;;26.43;;
11222;SDS011;5668;52.012;8.724;2024-01-11T08:21:14;41.37;;;26.83;;
11222;SDS011;5668;52.012;8.724;2024-01-11T08:23:41;39.00;;;25.73;;
11222;SDS011;5668;52.012;8.724;2024-01-11T08:26:12;42.57;;;24.23;;
11222;SDS011;5668;52.012;8.724;2024-01-11T08:28:39;39.87;;;24.80;;
11222;SDS011;5668;52.012;8.724;2024-01-11T08:31:07;42.93;;;25.60;;
11222;SDS011;5668;52.012;8.724;2024-01-11T08:33:34;40.90;;;26.80;;
11222;SDS011;5668;52.012;8.724;2024-01-11T08:36:02;45.70;;;27.07;;
11222;SDS011;5668;52.012;8.724;2024-01-11T08:38:29;39.47;;;25.80;;
11222;SDS011;5668;52.012;8.724;2024-01-11T08:40:57;39.43;;;26.03;;
11222;SDS011;5668;52.012;8.724;2024-01-11T08:43:26;47.67;;;26.43;;
11222;SDS011;5668;52.012;8.724;2024-01-11T08:45:53;40.33;;;25.50;;
11222;SDS011;5668;52.012;8.724;2024-01-11T08:48:21;43.53;;;26.97;;
11222;SDS011;5668;52.012;8.724;2024-01-11T08:50:48;44.10;;;26.67;;
11222;SDS011;5668;52.012;8.724;2024-01-11T08:53:15;40.67;;;26.43;;
11222;SDS011;5668;52.012;8.724;2024-01-11T08:55:43;43.17;;;27.03;;
11222;SDS011;5668;52.012;8.724;2024-01-11T08:58:10;41.37;;;26.00;;
11222;SDS011;5668;52.012;8.724;2024-01-11T09:00:39;42.33;;;26.07;;
11222;SDS011;5668;52.012;8.724;2024-01-11T09:03:06;48.70;;;25.80;;
11222;SDS011;5668;52.012;8.724;2024-01-11T09:05:33;43.87;;;25.00;;
11222;SDS011;5668;52.012;8.724;2024-01-11T09:08:00;43.83;;;25.87;;
11222;SDS011;5668;52.012;8.724;2024-01-11T09:10:32;41.90;;;26.00;;
11222;SDS011;5668;52.012;8.724;2024-01-11T09:12:59;43.60;;;26.70;;
11222;SDS011;5668;52.012;8.724;2024-01-11T09:15:27;39.63;;;25.93;;
11222;SDS011;5668;52.012;8.724;2024-01-11T09:17:55;36.03;;;25.47;;
11222;SDS011;5668;52.012;8.724;2024-01-11T09:20:25;40.30;;;24.23;;
11222;SDS011;5668;52.012;8.724;2024-01-11T09:22:52;37.83;;;25.17;;
11222;SDS011;5668;52.012;8.724;2024-01-11T09:25:20;39.63;;;25.33;;
11222;SDS011;5668;52.012;8.724;2024-01-11T09:27:47;43.50;;;26.53;;
11222;SDS011;5668;52.012;8.724;2024-01-11T09:30:14;42.73;;;25.83;;
11222;SDS011;5668;52.012;8.724;2024-01-11T09:32:42;37.37;;;24.70;;
11222;SDS011;5668;52.012;8.724;2024-01-11T09:35:10;38.13;;;25.23;;
11222;SDS011;5668;52.012;8.724;2024-01-11T09:37:38;40.53;;;25.63;;
11222;SDS011;5668;52.012;8.724;2024-01-11T09:40:06;39.07;;;25.10;;
11222;SDS011;5668;52.012;8.724;2024-01-11T09:42:36;42.30;;;25.23;;
11222;SDS011;5668;52.012;8.724;2024-01-11T09:45:04;42.83;;;26.40;;
11222;SDS011;5668;52.012;8.724;2024-01-11T09:47:37;40.77;;;25.47;;
11222;SDS011;5668;52.012;8.724;2024-01-11T09:50:07;41.67;;;25.43;;
11222;SDS011;5668;52.012;8.724;2024-01-11T09:52:42;37.10;;;24.03;;
11222;SDS011;5668;52.012;8.724;2024-01-11T09:55:13;38.43;;;25.30;;
11222;SDS011;5668;52.012;8.724;2024-01-11T09:57:42;40.30;;;25.30;;
11222;SDS011;5668;52.012;8.724;2024-01-11T10:00:12;39.37;;;24.87;;
11222;SDS011;5668;52.012;8.724;2024-01-11T10:02:43;46.67;;;26.77;;
11222;SDS011;5668;52.012;8.724;2024-01-11T10:05:13;42.20;;;25.47;;
11222;SDS011;5668;52.012;8.724;2024-01-11T10:07:41;39.47;;;26.43;;
11222;SDS011;5668;52.012;8.724;2024-01-11T10:10:08;41.30;;;26.63;;
11222;SDS011;5668;52.012;8.724;2024-01-11T10:12:37;42.70;;;25.40;;
11222;SDS011;5668;52.012;8.724;2024-01-11T10:15:05;38.87;;;25.13;;
11222;SDS011;5668;52.012;8.724;2024-01-11T10:17:34;41.03;;;25.27;;
11222;SDS011;5668;52.012;8.724;2024-01-11T10:20:02;38.50;;;25.80;;
11222;SDS011;5668;52.012;8.724;2024-01-11T10:22:36;41.57;;;24.90;;
11222;SDS011;5668;52.012;8.724;2024-01-11T10:25:10;37.57;;;24.97;;
11222;SDS011;5668;52.012;8.724;2024-01-11T10:27:39;36.27;;;24.53;;
11222;SDS011;5668;52.012;8.724;2024-01-11T10:30:08;37.43;;;24.10;;
11222;SDS011;5668;52.012;8.724;2024-01-11T10:32:38;38.17;;;24.40;;
11222;SDS011;5668;52.012;8.724;2024-01-11T10:35:05;39.10;;;25.57;;
11222;SDS011;5668;52.012;8.724;2024-01-11T10:37:33;36.90;;;22.73;;
11222;SDS011;5668;52.012;8.724;2024-01-11T10:40:03;40.13;;;23.03;;
11222;SDS011;5668;52.012;8.724;2024-01-11T10:42:36;38.50;;;23.50;;
11222;SDS011;5668;52.012;8.724;2024-01-11T10:45:08;38.90;;;24.47;;
11222;SDS011;5668;52.012;8.724;2024-01-11T10:47:39;38.63;;;23.77;;
11222;SDS011;5668;52.012;8.724;2024-01-11T10:50:16;35.80;;;22.23;;
11222;SDS011;5668;52.012;8.724;2024-01-11T10:52:47;36.33;;;23.97;;
11222;SDS011;5668;52.012;8.724;2024-01-11T10:55:30;33.40;;;22.30;;
11222;SDS011;5668;52.012;8.724;2024-01-11T10:57:59;40.80;;;24.10;;
11222;SDS011;5668;52.012;8.724;2024-01-11T11:00:27;36.43;;;23.67;;
11222;SDS011;5668;52.012;8.724;2024-01-11T11:02:55;34.07;;;23.00;;
11222;SDS011;5668;52.012;8.724;2024-01-11T11:05:25;35.47;;;23.53;;
11222;SDS011;5668;52.012;8.724;2024-01-11T11:07:54;33.10;;;23.03;;
11222;SDS011;5668;52.012;8.724;2024-01-11T11:10:23;35.73;;;23.33;;
11222;SDS011;5668;52.012;8.724;2024-01-11T11:12:54;35.27;;;23.57;;
11222;SDS011;5668;52.012;8.724;2024-01-11T11:15:22;35.53;;;22.80;;
11222;SDS011;5668;52.012;8.724;2024-01-11T11:17:52;37.97;;;24.17;;
11222;SDS011;5668;52.012;8.724;2024-01-11T11:20:20;32.87;;;22.17;;
11222;SDS011;5668;52.012;8.724;2024-01-11T11:22:48;29.90;;;21.73;;
11222;SDS011;5668;52.012;8.724;2024-01-11T11:25:29;33.30;;;22.50;;
11222;SDS011;5668;52.012;8.724;2024-01-11T11:27:58;35.43;;;22.10;;
11222;SDS011;5668;52.012;8.724;2024-01-11T11:30:29;31.03;;;21.27;;
11222;SDS011;5668;52.012;8.724;2024-01-11T11:32:56;33.77;;;20.83;;
11222;SDS011;5668;52.012;8.724;2024-01-11T11:35:24;32.47;;;21.57;;
11222;SDS011;5668;52.012;8.724;2024-01-11T11:37:55;32.43;;;19.90;;
11222;SDS011;5668;52.012;8.724;2024-01-11T11:40:31;30.87;;;19.43;;
11222;SDS011;5668;52.012;8.724;2024-01-11T11:43:03;30.30;;;20.10;;
11222;SDS011;5668;52.012;8.724;2024-01-11T11:45:31;32.97;;;20.53;;
11222;SDS011;5668;52.012;8.724;2024-01-11T11:47:59;31.33;;;20.87;;
11222;SDS011;5668;52.012;8.724;2024-01-11T11:50:26;32.20;;;21.53;;
11222;SDS011;5668;52.012;8.724;2024-01-11T11:52:56;33.43;;;20.97;;
11222;SDS011;5668;52.012;8.724;2024-01-11T11:55:23;29.93;;;20.07;;
11222;SDS011;5668;52.012;8.724;2024-01-11T11:57:51;32.00;;;21.63;;
11222;SDS011;5668;52.012;8.724;2024-01-11T12:00:20;32.47;;;20.93;;
11222;SDS011;5668;52.012;8.724;2024-01-11T12:02:49;33.13;;;21.30;;
11222;SDS011;5668;52.012;8.724;2024-01-11T12:05:17;35.10;;;20.40;;
11222;SDS011;5668;52.012;8.724;2024-01-11T12:07:44;31.47;;;20.27;;
11222;SDS011;5668;52.012;8.724;2024-01-11T12:10:12;31.70;;;20.80;;
11222;SDS011;5668;52.012;8.724;2024-01-11T12:12:40;31.43;;;20.60;;
11222;SDS011;5668;52.012;8.724;2024-01-11T12:15:08;30.37;;;20.20;;
11222;SDS011;5668;52.012;8.724;2024-01-11T12:17:37;31.93;;;20.13;;
11222;SDS011;5668;52.012;8.724;2024-01-11T12:20:07;33.80;;;20.77;;
11222;SDS011;5668;52.012;8.724;2024-01-11T12:22:37;30.67;;;20.37;;
11222;SDS011;5668;52.012;8.724;2024-01-11T12:25:05;35.93;;;21.17;;
11222;SDS011;5668;52.012;8.724;2024-01-11T12:27:33;32.87;;;20.83;;
11222;SDS011;5668;52.012;8.724;2024-01-11T12:30:01;32.07;;;21.30;;
11222;SDS011;5668;52.012;8.724;2024-01-11T12:32:28;35.57;;;22.70;;
11222;SDS011;5668;52.012;8.724;2024-01-11T12:34:57;36.33;;;22.10;;
11222;SDS011;5668;52.012;8.724;2024-01-11T12:37:24;35.33;;;21.50;;
11222;SDS011;5668;52.012;8.724;2024-01-11T12:39:56;34.57;;;21.27;;
11222;SDS011;5668;52.012;8.724;2024-01-11T12:42:24;34.30;;;21.20;;
11222;SDS011;5668;52.012;8.724;2024-01-11T12:44:51;35.47;;;21.67;;
11222;SDS011;5668;52.012;8.724;2024-01-11T12:47:19;39.27;;;21.70;;
11222;SDS011;5668;52.012;8.724;2024-01-11T12:49:46;35.00;;;21.50;;
11222;SDS011;5668;52.012;8.724;2024-01-11T12:52:16;30.43;;;20.73;;
11222;SDS011;5668;52.012;8.724;2024-01-11T12:54:44;36.47;;;21.17;;
11222;SDS011;5668;52.012;8.724;2024-01-11T12:57:12;37.73;;;22.47;;
11222;SDS011;5668;52.012;8.724;2024-01-11T12:59:45;36.23;;;21.70;;
11222;SDS011;5668;52.012;8.724;2024-01-11T13:02:12;32.63;;;21.07;;
11222;SDS011;5668;52.012;8.724;2024-01-11T13:04:40;38.43;;;21.17;;
11222;SDS011;5668;52.012;8.724;2024-01-11T13:07:09;33.43;;;20.80;;
11222;SDS011;5668;52.012;8.724;2024-01-11T13:09:39;34.17;;;20.50;;
11222;SDS011;5668;52.012;8.724;2024-01-11T13:12:06;31.87;;;20.67;;
11222;SDS011;5668;52.012;8.724;2024-01-11T13:14:34;32.80;;;20.10;;
11222;SDS011;5668;52.012;8.724;2024-01-11T13:17:01;33.20;;;19.83;;
11222;SDS011;5668;52.012;8.724;2024-01-11T13:19:28;36.13;;;20.43;;
11222;SDS011;5668;52.012;8.724;2024-01-11T13:21:56;33.27;;;20.03;;
11222;SDS011;5668;52.012;8.724;2024-01-11T13:24:23;31.70;;;19.67;;
11222;SDS011;5668;52.012;8.724;2024-01-11T13:26:51;33.83;;;19.97;;
11222;SDS011;5668;52.012;8.724;2024-01-11T13:29:20;31.27;;;19.80;;
11222;SDS011;5668;52.012;8.724;2024-01-11T13:31:47;31.30;;;19.27;;
11222;SDS011;5668;52.012;8.724;2024-01-11T13:34:15;29.90;;;19.63;;
11222;SDS011;5668;52.012;8.724;2024-01-11T13:36:42;32.07;;;19.60;;
11222;SDS011;5668;52.012;8.724;2024-01-11T13:39:09;32.40;;;19.10;;
11222;SDS011;5668;52.012;8.724;2024-01-11T13:41:36;30.83;;;19.03;;
11222;SDS011;5668;52.012;8.724;2024-01-11T13:44:07;36.57;;;20.60;;
11222;SDS011;5668;52.012;8.724;2024-01-11T13:46:34;31.20;;;18.97;;
11222;SDS011;5668;52.012;8.724;2024-01-11T13:49:01;32.67;;;19.90;;
11222;SDS011;5668;52.012;8.724;2024-01-11T13:51:29;34.47;;;20.17;;
11222;SDS011;5668;52.012;8.724;2024-01-11T13:53:57;35.43;;;20.03;;
11222;SDS011;5668;52.012;8.724;2024-01-11T13:56:25;36.97;;;19.10;;
11222;SDS011;5668;52.012;8.724;2024-01-11T13:58:53;31.83;;;20.10;;
11222;SDS011;5668;52.012;8.724;2024-01-11T14:01:22;34.53;;;19.40;;
11222;SDS011;5668;52.012;8.724;2024-01-11T14:03:49;35.97;;;19.27;;
11222;SDS011;5668;52.012;8.724;2024-01-11T14:06:16;34.63;;;20.17;;
11222;SDS011;5668;52.012;8.724;2024-01-11T14:08:43;30.87;;;19.23;;
11222;SDS011;5668;52.012;8.724;2024-01-11T14:11:11;35.00;;;19.23;;
11222;SDS011;5668;52.012;8.724;2024-01-11T14:13:38;35.20;;;19.83;;
11222;SDS011;5668;52.012;8.724;2024-01-11T14:16:05;34.57;;;19.47;;
11222;SDS011;5668;52.012;8.724;2024-01-11T14:18:34;34.13;;;20.73;;
11222;SDS011;5668;52.012;8.724;2024-01-11T14:21:01;35.03;;;19.27;;
11222;SDS011;5668;52.012;8.724;2024-01-11T14:23:28;31.63;;;19.17;;
11222;SDS011;5668;52.012;8.724;2024-01-11T14:25:55;34.47;;;20.53;;
11222;SDS011;5668;52.012;8.724;2024-01-11T14:28:22;33.30;;;20.37;;
11222;SDS011;5668;52.012;8.724;2024-01-11T14:30:50;37.80;;;20.57;;
11222;SDS011;5668;52.012;8.724;2024-01-11T14:33:17;34.50;;;20.87;;
11222;SDS011;5668;52.012;8.724;2024-01-11T14:35:46;36.10;;;20.77;;
11222;SDS011;5668;52.012;8.724;2024-01-11T14:38:14;30.53;;;19.87;;
11222;SDS011;5668;52.012;8.724;2024-01-11T14:40:41;39.67;;;21.40;;